createdAt,value
2018-10-01T00:00:38.461Z,19.83
2018-10-01T00:03:06.926Z,19.43
2018-10-01T00:05:36.082Z,19.35
2018-10-01T00:08:05.963Z,20.23
2018-10-01T00:10:34.832Z,18.97
2018-10-01T00:13:03.746Z,19.80
2018-10-01T00:15:32.036Z,20.50
2018-10-01T00:18:00.855Z,19.13
2018-10-01T00:20:34.568Z,19.20
2018-10-01T00:23:03.060Z,19.77
2018-10-01T00:25:31.564Z,18.53
2018-10-01T00:27:59.859Z,18.97
2018-10-01T00:30:28.145Z,19.93
2018-10-01T00:32:56.687Z,20.45
2018-10-01T00:35:25.166Z,19.07
2018-10-01T00:37:53.484Z,19.50
2018-10-01T00:40:22.092Z,19.70
2018-10-01T00:42:50.663Z,20.27
2018-10-01T00:45:18.948Z,18.40
2018-10-01T00:47:47.477Z,18.17
2018-10-01T00:50:16.109Z,19.00
2018-10-01T00:52:44.669Z,19.07
2018-10-01T00:55:12.995Z,20.83
2018-10-01T00:57:41.592Z,20.17
2018-10-01T01:00:10.172Z,18.93
2018-10-01T01:02:38.720Z,21.10
2018-10-01T01:05:07.008Z,20.90
2018-10-01T01:07:35.575Z,20.85
2018-10-01T01:10:04.337Z,20.07
2018-10-01T01:12:32.639Z,15.17
2018-10-01T01:15:01.533Z,18.70
2018-10-01T01:17:30.076Z,18.33
2018-10-01T01:19:58.611Z,18.20
2018-10-01T01:22:27.199Z,23.83
2018-10-01T01:24:55.586Z,20.87
2018-10-01T01:27:24.179Z,23.32
2018-10-01T01:29:52.933Z,23.80
2018-10-01T01:32:21.492Z,22.93
2018-10-01T01:34:50.110Z,24.52
2018-10-01T01:37:18.684Z,26.50
2018-10-01T01:39:47.446Z,26.20
2018-10-01T01:42:16.342Z,26.27
2018-10-01T01:44:45.599Z,26.80
2018-10-01T01:47:14.499Z,25.80
2018-10-01T01:49:42.840Z,26.47
2018-10-01T01:52:11.134Z,27.43
2018-10-01T01:54:39.418Z,29.10
2018-10-01T01:57:08.015Z,28.87
2018-10-01T01:59:36.609Z,29.70
2018-10-01T02:02:05.227Z,28.20
2018-10-01T02:04:33.814Z,30.40
2018-10-01T02:07:02.435Z,30.43
2018-10-01T02:09:30.960Z,28.10
2018-10-01T02:11:59.669Z,28.73
2018-10-01T02:14:27.936Z,30.40
2018-10-01T02:16:56.415Z,31.13
2018-10-01T02:19:25.279Z,28.93
2018-10-01T02:21:53.571Z,32.13
2018-10-01T02:24:22.126Z,30.70
2018-10-01T02:26:50.532Z,32.47
2018-10-01T02:29:19.124Z,33.40
2018-10-01T02:31:47.590Z,33.17
2018-10-01T02:34:16.235Z,33.60
2018-10-01T02:36:44.523Z,34.53
2018-10-01T02:39:13.907Z,34.80
2018-10-01T02:41:42.276Z,32.70
2018-10-01T02:44:10.644Z,34.80
2018-10-01T02:46:39.116Z,35.00
2018-10-01T02:49:07.396Z,34.47
2018-10-01T02:51:41.048Z,35.35
2018-10-01T02:54:14.717Z,34.97
2018-10-01T02:56:43.264Z,34.40
2018-10-01T02:59:11.810Z,34.45
2018-10-01T03:01:40.135Z,38.47
2018-10-01T03:04:08.620Z,34.63
2018-10-01T03:06:37.146Z,33.80
2018-10-01T03:09:09.884Z,36.33
2018-10-01T03:11:38.455Z,38.40
2018-10-01T03:14:07.105Z,36.77
2018-10-01T03:16:36.113Z,36.50
2018-10-01T03:19:04.728Z,37.80
2018-10-01T03:21:33.280Z,37.15
2018-10-01T03:24:01.792Z,38.17
2018-10-01T03:26:30.397Z,37.07
2018-10-01T03:28:59.081Z,37.63
2018-10-01T03:31:27.536Z,36.23
2018-10-01T03:33:56.388Z,39.73
2018-10-01T03:36:25.426Z,38.13
2018-10-01T03:38:53.766Z,40.47
2018-10-01T03:41:22.097Z,41.67
2018-10-01T03:43:50.690Z,39.93
2018-10-01T03:46:19.030Z,37.63
2018-10-01T03:48:47.627Z,39.13
2018-10-01T03:51:16.124Z,37.47
2018-10-01T03:53:45.052Z,36.50
2018-10-01T03:56:13.537Z,36.57
2018-10-01T03:58:41.907Z,36.50
2018-10-01T04:01:10.787Z,38.70
2018-10-01T04:03:39.131Z,36.50
2018-10-01T04:06:07.904Z,37.53
2018-10-01T04:08:36.276Z,37.17
2018-10-01T04:11:04.850Z,37.63
2018-10-01T04:13:33.131Z,38.80
2018-10-01T04:16:01.433Z,38.70
2018-10-01T04:18:29.706Z,39.57
2018-10-01T04:20:58.160Z,38.00
2018-10-01T04:23:26.485Z,38.77
2018-10-01T04:25:55.093Z,35.95
2018-10-01T04:28:23.458Z,40.33
2018-10-01T04:30:51.917Z,39.87
2018-10-01T04:33:20.212Z,43.27
2018-10-01T04:35:48.790Z,45.10
2018-10-01T04:38:17.268Z,42.70
2018-10-01T04:40:45.852Z,40.47
2018-10-01T04:43:14.323Z,39.87
2018-10-01T04:45:42.937Z,40.23
2018-10-01T04:48:11.473Z,40.20
2018-10-01T04:50:40.048Z,39.88
2018-10-01T04:53:08.614Z,37.40
2018-10-01T04:55:37.376Z,39.30
2018-10-01T04:58:05.742Z,38.63
2018-10-01T05:00:34.485Z,36.70
2018-10-01T05:03:03.036Z,34.08
2018-10-01T05:05:31.303Z,31.40
2018-10-01T05:07:59.846Z,28.70
2018-10-01T05:10:28.109Z,30.67
2018-10-01T05:12:56.604Z,28.80
2018-10-01T05:15:25.060Z,28.20
2018-10-01T05:17:53.346Z,28.20
2018-10-01T05:20:21.667Z,26.63
2018-10-01T05:22:50.322Z,27.10
2018-10-01T05:25:18.822Z,24.93
2018-10-01T05:27:47.112Z,26.27
2018-10-01T05:30:15.712Z,27.73
2018-10-01T05:32:44.252Z,29.37
2018-10-01T05:35:12.925Z,29.60
2018-10-01T05:37:41.484Z,28.90
2018-10-01T05:40:09.787Z,29.40
2018-10-01T05:42:38.135Z,29.03
2018-10-01T05:45:06.468Z,29.57
2018-10-01T05:47:34.858Z,31.20
2018-10-01T05:50:03.276Z,31.80
2018-10-01T05:52:31.878Z,29.18
2018-10-01T05:55:00.378Z,28.47
2018-10-01T05:57:28.703Z,27.20
2018-10-01T05:59:57.571Z,25.83
2018-10-01T06:02:25.853Z,24.83
2018-10-01T06:04:54.523Z,23.10
2018-10-01T06:07:23.180Z,26.13
2018-10-01T06:09:51.796Z,24.87
2018-10-01T06:12:20.078Z,24.07
2018-10-01T06:14:48.559Z,26.60
2018-10-01T06:17:16.823Z,24.60
2018-10-01T06:19:45.079Z,24.87
2018-10-01T06:22:13.557Z,26.00
2018-10-01T06:24:41.801Z,25.00
2018-10-01T06:27:10.376Z,23.77
2018-10-01T06:29:38.940Z,26.90
2018-10-01T06:32:07.506Z,25.50
2018-10-01T06:34:35.798Z,26.60
2018-10-01T06:37:04.343Z,25.57
2018-10-01T06:39:32.913Z,26.37
2018-10-01T06:42:01.504Z,28.10
2018-10-01T06:44:31.062Z,26.60
2018-10-01T06:46:59.662Z,26.80
2018-10-01T06:49:28.192Z,27.60
2018-10-01T06:51:56.552Z,24.00
2018-10-01T06:54:24.867Z,24.87
2018-10-01T06:56:53.124Z,25.30
2018-10-01T06:59:21.411Z,23.57
2018-10-01T07:01:50.045Z,22.22
2018-10-01T07:04:18.702Z,24.67
2018-10-01T07:06:47.067Z,22.20
2018-10-01T07:09:15.420Z,22.97
2018-10-01T07:11:44.062Z,20.97
2018-10-01T07:14:12.460Z,20.40
2018-10-01T07:16:41.050Z,23.17
2018-10-01T07:19:09.605Z,20.45
2018-10-01T07:21:38.191Z,22.33
2018-10-01T07:24:06.689Z,22.40
2018-10-01T07:26:35.248Z,21.25
2018-10-01T07:29:03.864Z,21.70
2018-10-01T07:31:32.172Z,22.07
2018-10-01T07:34:00.457Z,22.50
2018-10-01T07:36:28.818Z,23.40
2018-10-01T07:38:57.149Z,21.63
2018-10-01T07:41:25.571Z,18.33
2018-10-01T07:43:54.143Z,17.60
2018-10-01T07:46:22.879Z,16.30
2018-10-01T07:48:51.139Z,14.87
2018-10-01T07:51:20.009Z,17.27
2018-10-01T07:53:48.347Z,15.13
2018-10-01T07:56:16.623Z,16.80
2018-10-01T07:58:45.277Z,15.77
2018-10-01T08:01:13.834Z,14.40
2018-10-01T08:03:42.443Z,13.67
2018-10-01T08:06:10.940Z,14.30
2018-10-01T08:08:39.342Z,13.50
2018-10-01T08:11:08.031Z,11.90
2018-10-01T08:13:36.308Z,12.53
2018-10-01T08:16:05.094Z,12.13
2018-10-01T08:18:33.484Z,13.17
2018-10-01T08:21:01.820Z,13.00
2018-10-01T08:23:30.752Z,12.85
2018-10-01T08:25:59.253Z,13.60
2018-10-01T08:28:27.717Z,12.80
2018-10-01T08:30:56.295Z,13.67
2018-10-01T08:33:25.264Z,14.90
2018-10-01T08:35:53.844Z,14.00
2018-10-01T08:38:22.392Z,13.50
2018-10-01T08:40:51.387Z,14.47
2018-10-01T08:43:20.049Z,12.63
2018-10-01T08:45:48.633Z,13.00
2018-10-01T08:48:18.015Z,13.97
2018-10-01T08:51:16.889Z,13.05
2018-10-01T08:54:48.684Z,14.40
2018-10-01T08:57:17.204Z,13.67
2018-10-01T08:59:45.774Z,14.57
2018-10-01T09:02:14.761Z,13.70
2018-10-01T09:04:43.251Z,14.03
2018-10-01T09:07:11.932Z,14.20
2018-10-01T09:09:40.372Z,15.23
2018-10-01T09:12:09.280Z,14.33
2018-10-01T09:14:37.636Z,16.07
2018-10-01T09:17:06.376Z,14.43
2018-10-01T09:19:35.120Z,15.80
2018-10-01T09:22:04.137Z,18.15
2018-10-01T09:24:32.427Z,16.90
2018-10-01T09:27:00.996Z,18.23
2018-10-01T09:29:29.317Z,15.83
2018-10-01T09:31:58.015Z,16.07
2018-10-01T09:34:26.646Z,15.40
2018-10-01T09:36:54.988Z,14.03
2018-10-01T09:39:23.311Z,15.50
2018-10-01T09:41:51.623Z,14.97
2018-10-01T09:44:19.971Z,16.43
2018-10-01T09:46:48.408Z,16.93
2018-10-01T09:49:17.048Z,13.40
2018-10-01T09:51:45.473Z,15.07
2018-10-01T09:54:14.020Z,11.48
2018-10-01T09:56:43.006Z,11.63
2018-10-01T09:59:11.660Z,11.60
2018-10-01T10:01:40.215Z,11.25
2018-10-01T10:04:08.746Z,10.90
2018-10-01T10:06:37.168Z,11.73
2018-10-01T10:09:08.504Z,11.00
2018-10-01T10:11:36.823Z,11.60
2018-10-01T10:14:05.308Z,10.97
2018-10-01T10:16:34.168Z,11.15
2018-10-01T10:19:02.651Z,11.90
2018-10-01T10:21:31.167Z,11.57
2018-10-01T10:23:59.491Z,12.17
2018-10-01T10:26:28.179Z,10.83
2018-10-01T10:28:56.624Z,11.03
2018-10-01T10:31:24.906Z,11.70
2018-10-01T10:33:53.381Z,11.33
2018-10-01T10:36:21.767Z,10.60
2018-10-01T10:38:50.066Z,12.30
2018-10-01T10:41:18.622Z,10.63
2018-10-01T10:43:47.557Z,12.15
2018-10-01T10:46:15.908Z,11.00
2018-10-01T10:48:44.614Z,11.60
2018-10-01T10:51:13.191Z,11.90
2018-10-01T10:53:41.825Z,11.03
2018-10-01T10:56:10.315Z,10.90
2018-10-01T10:58:38.943Z,11.50
2018-10-01T11:01:07.523Z,12.53
2018-10-01T11:03:35.788Z,11.40
2018-10-01T11:06:04.308Z,11.63
2018-10-01T11:08:32.854Z,10.10
2018-10-01T11:11:01.447Z,10.20
2018-10-01T11:13:29.743Z,10.60
2018-10-01T11:15:58.053Z,12.43
2018-10-01T11:18:26.567Z,10.50
2018-10-01T11:20:55.195Z,10.37
2018-10-01T11:23:23.767Z,11.63
2018-10-01T11:25:52.338Z,11.48
2018-10-01T11:28:20.681Z,10.10
2018-10-01T11:30:49.280Z,9.70
2018-10-01T11:33:18.083Z,9.05
2018-10-01T11:35:46.498Z,10.20
2018-10-01T11:38:14.997Z,10.40
2018-10-01T11:40:43.505Z,10.43
2018-10-01T11:43:11.776Z,10.73
2018-10-01T11:45:40.720Z,9.83
2018-10-01T11:48:09.243Z,11.23
2018-10-01T11:50:38.552Z,11.20
2018-10-01T11:53:07.151Z,11.30
2018-10-01T11:55:35.814Z,12.13
2018-10-01T11:58:04.404Z,10.13
2018-10-01T12:00:32.912Z,9.47
2018-10-01T12:03:01.508Z,10.77
2018-10-01T12:05:29.996Z,9.77
2018-10-01T12:07:58.345Z,9.40
2018-10-01T12:10:26.667Z,10.93
2018-10-01T12:12:55.388Z,11.15
2018-10-01T12:15:24.032Z,11.10
2018-10-01T12:17:52.737Z,12.70
2018-10-01T12:20:21.292Z,12.03
2018-10-01T12:22:49.571Z,11.47
2018-10-01T12:25:17.867Z,10.83
2018-10-01T12:27:46.391Z,11.38
2018-10-01T12:30:14.884Z,11.40
2018-10-01T12:32:43.434Z,11.70
2018-10-01T12:35:11.990Z,11.87
2018-10-01T12:37:40.412Z,12.20
2018-10-01T12:40:09.015Z,12.97
2018-10-01T12:42:37.368Z,12.67
2018-10-01T12:45:06.805Z,13.83
2018-10-01T12:47:35.340Z,13.20
2018-10-01T12:50:04.152Z,13.80
2018-10-01T12:52:32.986Z,13.67
2018-10-01T12:55:01.326Z,13.17
2018-10-01T12:57:29.645Z,13.97
2018-10-01T12:59:58.179Z,12.77
2018-10-01T13:02:26.747Z,13.17
2018-10-01T13:04:55.443Z,13.00
2018-10-01T13:07:23.914Z,13.63
2018-10-01T13:09:52.193Z,13.80
2018-10-01T13:12:20.804Z,13.77
2018-10-01T13:14:49.485Z,15.30
2018-10-01T13:17:18.015Z,14.07
2018-10-01T13:19:46.547Z,17.27
2018-10-01T13:22:15.288Z,14.47
2018-10-01T13:24:43.759Z,16.50
2018-10-01T13:27:12.346Z,18.50
2018-10-01T13:29:40.949Z,18.10
2018-10-01T13:32:09.455Z,16.47
2018-10-01T13:34:37.721Z,17.83
2018-10-01T13:37:06.615Z,16.27
2018-10-01T13:39:35.427Z,17.20
2018-10-01T13:42:04.094Z,17.97
2018-10-01T13:44:32.539Z,16.77
2018-10-01T13:47:00.880Z,17.50
2018-10-01T13:49:29.168Z,15.97
2018-10-01T13:51:58.001Z,16.30
2018-10-01T13:54:26.477Z,18.07
2018-10-01T13:56:55.211Z,16.50
2018-10-01T13:59:23.723Z,15.47
2018-10-01T14:01:52.276Z,16.90
2018-10-01T14:04:20.816Z,15.93
2018-10-01T14:06:49.531Z,15.67
2018-10-01T14:09:17.848Z,15.97
2018-10-01T14:11:46.504Z,17.30
2018-10-01T14:14:14.791Z,18.20
2018-10-01T14:16:43.099Z,17.93
2018-10-01T14:19:11.491Z,18.03
2018-10-01T14:21:39.916Z,17.87
2018-10-01T14:24:08.770Z,19.27
2018-10-01T14:26:37.400Z,21.43
2018-10-01T14:29:06.416Z,18.37
2018-10-01T14:31:34.891Z,19.40
2018-10-01T14:34:03.541Z,19.03
2018-10-01T14:36:32.808Z,18.40
2018-10-01T14:39:03.333Z,18.92
2018-10-01T14:41:31.675Z,18.20
2018-10-01T14:44:00.184Z,21.30
2018-10-01T14:46:29.059Z,19.53
2018-10-01T14:48:57.331Z,16.00
2018-10-01T14:51:26.224Z,19.77
2018-10-01T14:53:54.576Z,19.23
2018-10-01T14:56:23.042Z,18.90
2018-10-01T14:58:51.552Z,17.77
2018-10-01T15:01:20.438Z,19.00
2018-10-01T15:03:48.917Z,17.63
2018-10-01T15:06:17.509Z,18.53
2018-10-01T15:08:46.485Z,18.33
2018-10-01T15:11:14.816Z,19.17
2018-10-01T15:13:43.415Z,18.00
2018-10-01T15:16:11.820Z,17.77
2018-10-01T15:18:40.618Z,17.67
2018-10-01T15:21:09.215Z,21.97
2018-10-01T15:23:37.485Z,16.97
2018-10-01T15:26:06.067Z,16.47
2018-10-01T15:28:34.410Z,17.37
2018-10-01T15:31:02.776Z,17.00
2018-10-01T15:33:31.080Z,14.70
2018-10-01T15:36:00.218Z,13.60
2018-10-01T15:38:28.693Z,14.13
2018-10-01T15:40:57.263Z,14.50
2018-10-01T15:43:25.608Z,13.37
2018-10-01T15:45:53.888Z,12.70
2018-10-01T15:48:22.282Z,12.60
2018-10-01T15:50:50.788Z,11.83
2018-10-01T15:53:19.365Z,12.75
2018-10-01T15:55:47.846Z,12.70
2018-10-01T15:58:16.575Z,13.23
2018-10-01T16:00:45.042Z,13.60
2018-10-01T16:03:13.377Z,14.17
2018-10-01T16:05:41.784Z,17.00
2018-10-01T16:08:10.367Z,18.20
2018-10-01T16:10:38.847Z,18.27
2018-10-01T16:13:07.393Z,21.17
2018-10-01T16:15:35.665Z,17.67
2018-10-01T16:18:03.991Z,16.97
2018-10-01T16:20:32.462Z,16.10
2018-10-01T16:23:01.050Z,17.13
2018-10-01T16:25:29.999Z,17.10
2018-10-01T16:27:58.965Z,16.90
2018-10-01T16:30:27.324Z,16.37
2018-10-01T16:32:55.626Z,16.70
2018-10-01T16:35:24.284Z,16.43
2018-10-01T16:37:53.165Z,16.73
2018-10-01T16:40:21.729Z,18.15
2018-10-01T16:42:50.591Z,19.23
2018-10-01T16:45:18.880Z,18.00
2018-10-01T16:47:47.247Z,18.97
2018-10-01T16:50:17.220Z,17.63
2018-10-01T16:52:52.743Z,18.45
2018-10-01T16:55:21.708Z,17.90
2018-10-01T16:57:50.290Z,17.90
2018-10-01T17:00:18.952Z,17.27
2018-10-01T17:02:47.573Z,17.40
2018-10-01T17:05:16.178Z,17.97
2018-10-01T17:07:44.477Z,15.93
2018-10-01T17:10:12.785Z,15.87
2018-10-01T17:12:41.516Z,16.97
2018-10-01T17:15:10.283Z,14.77
2018-10-01T17:17:38.710Z,14.83
2018-10-01T17:20:08.130Z,13.50
2018-10-01T17:22:36.781Z,14.58
2018-10-01T17:25:05.405Z,13.30
2018-10-01T17:27:33.691Z,13.60
2018-10-01T17:30:02.072Z,13.70
2018-10-01T17:32:30.787Z,14.13
2018-10-01T17:34:59.136Z,14.60
2018-10-01T17:37:27.661Z,13.43
2018-10-01T17:39:56.134Z,14.80
2018-10-01T17:42:24.403Z,13.53
2018-10-01T17:44:52.707Z,14.70
2018-10-01T17:47:21.294Z,13.98
2018-10-01T17:49:49.854Z,13.80
2018-10-01T17:52:18.406Z,12.73
2018-10-01T17:54:47.113Z,12.90
2018-10-01T17:57:15.830Z,11.97
2018-10-01T17:59:44.684Z,13.40
2018-10-01T18:02:13.213Z,12.60
2018-10-01T18:04:41.796Z,13.28
2018-10-01T18:07:10.064Z,12.13
2018-10-01T18:09:38.424Z,12.13
2018-10-01T18:12:07.282Z,11.33
2018-10-01T18:14:35.909Z,10.90
2018-10-01T18:17:04.217Z,10.93
2018-10-01T18:19:32.784Z,10.38
2018-10-01T18:22:01.089Z,9.50
2018-10-01T18:24:29.678Z,10.30
2018-10-01T18:26:57.947Z,9.20
2018-10-01T18:29:26.215Z,10.23
2018-10-01T18:31:54.639Z,8.70
2018-10-01T18:34:23.172Z,9.40
2018-10-01T18:36:51.654Z,8.20
2018-10-01T18:39:22.827Z,9.10
2018-10-01T18:41:51.285Z,8.57
2018-10-01T18:44:19.960Z,9.45
2018-10-01T18:46:48.372Z,9.43
2018-10-01T18:49:17.496Z,7.77
2018-10-01T18:51:46.029Z,9.43
2018-10-01T18:54:15.027Z,8.73
2018-10-01T18:56:43.619Z,9.93
2018-10-01T18:59:12.438Z,8.50
2018-10-01T19:01:41.431Z,8.90
2018-10-01T19:04:10.328Z,8.95
2018-10-01T19:06:38.934Z,8.90
2018-10-01T19:09:09.395Z,9.40
2018-10-01T19:11:38.417Z,9.27
2018-10-01T19:14:07.579Z,9.78
2018-10-01T19:16:36.107Z,9.40
2018-10-01T19:19:05.300Z,8.15
2018-10-01T19:21:33.718Z,8.10
2018-10-01T19:24:02.361Z,9.08
2018-10-01T19:26:31.103Z,7.37
2018-10-01T19:28:59.373Z,8.30
2018-10-01T19:31:28.139Z,7.93
2018-10-01T19:33:56.852Z,7.43
2018-10-01T19:36:25.396Z,7.60
2018-10-01T19:38:53.739Z,7.60
2018-10-01T19:41:22.783Z,7.83
2018-10-01T19:43:51.270Z,7.27
2018-10-01T19:46:20.086Z,8.10
2018-10-01T19:48:48.912Z,7.53
2018-10-01T19:51:17.251Z,7.10
2018-10-01T19:53:45.776Z,8.17
2018-10-01T19:56:14.333Z,7.40
2018-10-01T19:58:42.631Z,8.83
2018-10-01T20:01:11.175Z,7.93
2018-10-01T20:03:39.451Z,7.60
2018-10-01T20:06:07.764Z,7.27
2018-10-01T20:08:36.028Z,7.10
2018-10-01T20:11:04.315Z,5.73
2018-10-01T20:13:32.836Z,5.90
2018-10-01T20:16:01.316Z,6.90
2018-10-01T20:18:29.729Z,5.50
2018-10-01T20:20:58.276Z,6.80
2018-10-01T20:23:26.766Z,7.30
2018-10-01T20:25:55.254Z,7.90
2018-10-01T20:28:23.891Z,6.17
2018-10-01T20:30:52.211Z,7.40
2018-10-01T20:33:20.564Z,7.20
2018-10-01T20:35:48.962Z,6.73
2018-10-01T20:38:17.739Z,7.22
2018-10-01T20:43:49.362Z,6.67
2018-10-01T20:46:17.827Z,6.67
2018-10-01T20:48:46.093Z,6.77
2018-10-01T20:51:14.642Z,6.80
2018-10-01T20:53:43.414Z,6.47
2018-10-01T20:56:12.117Z,5.55
2018-10-01T20:58:40.787Z,5.80
2018-10-01T21:01:09.490Z,7.20
2018-10-01T21:03:38.055Z,5.97
2018-10-01T21:06:06.866Z,6.50
2018-10-01T21:08:35.280Z,6.47
2018-10-01T21:11:03.727Z,6.07
2018-10-01T21:13:32.063Z,6.20
2018-10-01T21:16:00.532Z,5.73
2018-10-01T21:18:29.027Z,5.87
2018-10-01T21:20:57.400Z,6.23
2018-10-01T21:23:26.087Z,6.30
2018-10-01T21:25:54.619Z,6.20
2018-10-01T21:28:23.171Z,5.62
2018-10-01T21:30:52.202Z,6.97
2018-10-01T21:33:20.585Z,6.57
2018-10-01T21:35:49.161Z,6.83
2018-10-01T21:38:17.448Z,7.20
2018-10-01T21:40:45.786Z,7.13
2018-10-01T21:43:14.086Z,6.60
2018-10-01T21:45:42.399Z,6.83
2018-10-01T21:48:10.674Z,8.10
2018-10-01T21:50:39.007Z,8.60
2018-10-01T21:53:07.638Z,6.87
2018-10-01T21:55:36.052Z,7.97
2018-10-01T21:58:04.620Z,9.03
2018-10-01T22:00:38.323Z,8.07
2018-10-01T22:03:06.928Z,8.80
2018-10-01T22:05:35.220Z,8.13
2018-10-01T22:08:03.608Z,9.00
2018-10-01T22:10:32.116Z,7.43
2018-10-01T22:13:00.393Z,9.20
2018-10-01T22:15:59.183Z,9.47
2018-10-01T22:18:27.708Z,8.03
2018-10-01T22:20:56.023Z,8.40
2018-10-01T22:23:24.378Z,7.83
2018-10-01T22:25:52.921Z,8.13
2018-10-01T22:28:21.483Z,8.40
2018-10-01T22:30:49.967Z,8.03
2018-10-01T22:33:18.243Z,9.23
2018-10-01T22:35:46.876Z,10.00
2018-10-01T22:38:15.299Z,9.10
2018-10-01T22:40:43.571Z,7.80
2018-10-01T22:43:13.182Z,9.30
2018-10-01T22:45:41.721Z,8.90
2018-10-01T22:48:10.267Z,9.15
2018-10-01T22:50:38.723Z,9.33
2018-10-01T22:53:07.575Z,9.10
2018-10-01T22:55:35.983Z,9.53
2018-10-01T22:58:04.354Z,9.10
2018-10-01T23:00:32.924Z,11.57
2018-10-01T23:03:01.474Z,9.00
2018-10-01T23:05:29.766Z,9.07
2018-10-01T23:07:58.044Z,9.50
2018-10-01T23:10:26.603Z,9.30
2018-10-01T23:12:55.159Z,8.00
2018-10-01T23:15:23.727Z,9.63
2018-10-01T23:17:52.009Z,9.80
2018-10-01T23:20:20.619Z,9.77
2018-10-01T23:22:49.100Z,8.57
2018-10-01T23:25:17.589Z,9.00
2018-10-01T23:27:46.118Z,10.00
2018-10-01T23:30:14.717Z,9.40
2018-10-01T23:32:43.189Z,9.13
2018-10-01T23:35:11.791Z,9.17
2018-10-01T23:37:40.191Z,8.10
2018-10-01T23:40:08.488Z,9.87
2018-10-01T23:42:36.772Z,7.87
2018-10-01T23:45:05.792Z,8.30
2018-10-01T23:47:34.102Z,8.60
2018-10-01T23:50:03.087Z,8.30
2018-10-01T23:52:31.391Z,8.80
2018-10-01T23:54:59.982Z,9.28
2018-10-01T23:57:28.312Z,8.77
2018-10-01T23:59:56.600Z,7.73
